createdAt,value
2023-01-03T00:02:16.237Z,7.28
2023-01-03T00:04:49.145Z,7.55
2023-01-03T00:07:33.859Z,7.81
2023-01-03T00:10:07.338Z,7.99
2023-01-03T00:12:35.503Z,8.13
2023-01-03T00:15:03.271Z,6.48
2023-01-03T00:17:30.961Z,6.01
2023-01-03T00:19:58.388Z,5.05
2023-01-03T00:22:25.988Z,5.79
2023-01-03T00:24:53.680Z,6.35
2023-01-03T00:27:21.063Z,5.98
2023-01-03T00:29:48.666Z,5.77
2023-01-03T00:32:16.125Z,5.61
2023-01-03T00:34:44.890Z,6.18
2023-01-03T00:37:13.269Z,6.08
2023-01-03T00:39:40.632Z,6.58
2023-01-03T00:42:08.229Z,6.50
2023-01-03T00:44:35.934Z,6.59
2023-01-03T00:47:03.589Z,6.97
2023-01-03T00:49:31.014Z,6.50
2023-01-03T00:51:58.657Z,6.53
2023-01-03T00:54:26.190Z,6.22
2023-01-03T00:56:53.548Z,6.67
2023-01-03T00:59:21.445Z,6.63
2023-01-03T01:01:50.891Z,6.05
2023-01-03T01:04:29.249Z,6.08
2023-01-03T01:06:59.206Z,6.68
2023-01-03T01:09:28.728Z,6.39
2023-01-03T01:11:56.175Z,6.09
2023-01-03T01:14:25.231Z,6.13
2023-01-03T01:16:56.918Z,6.03
2023-01-03T01:19:29.785Z,5.88
2023-01-03T01:21:57.649Z,6.19
2023-01-03T01:24:25.358Z,5.88
2023-01-03T01:26:52.831Z,5.93
2023-01-03T01:29:20.311Z,5.92
2023-01-03T01:31:48.160Z,5.74
2023-01-03T01:34:15.837Z,6.14
2023-01-03T01:36:43.737Z,6.59
2023-01-03T01:39:20.340Z,6.60
2023-01-03T01:42:07.592Z,6.55
2023-01-03T01:44:54.873Z,6.30
2023-01-03T01:47:27.258Z,6.46
2023-01-03T01:50:03.971Z,6.83
2023-01-03T01:52:32.557Z,6.68
2023-01-03T01:55:02.097Z,7.22
2023-01-03T01:57:29.507Z,7.77
2023-01-03T01:59:56.870Z,7.58
2023-01-03T02:02:24.780Z,7.93
2023-01-03T02:04:54.071Z,6.74
2023-01-03T02:07:22.031Z,7.25
2023-01-03T02:09:49.416Z,7.05
2023-01-03T02:12:52.316Z,6.82
2023-01-03T02:15:39.088Z,6.82
2023-01-03T02:18:12.728Z,6.61
2023-01-03T02:20:59.112Z,7.05
2023-01-03T02:24:02.126Z,6.62
2023-01-03T02:26:48.462Z,6.77
2023-01-03T02:29:33.489Z,6.56
2023-01-03T02:32:42.783Z,6.54
2023-01-03T02:35:31.297Z,6.64
2023-01-03T02:38:06.032Z,6.73
2023-01-03T02:40:45.397Z,6.64
2023-01-03T02:43:17.260Z,6.33
2023-01-03T02:45:52.620Z,6.35
2023-01-03T02:48:35.476Z,6.45
2023-01-03T02:51:29.803Z,6.18
2023-01-03T02:53:57.433Z,6.60
2023-01-03T02:56:29.072Z,6.87
2023-01-03T02:59:02.296Z,6.47
2023-01-03T03:01:29.990Z,6.64
2023-01-03T03:03:57.741Z,6.49
2023-01-03T03:06:35.046Z,6.94
2023-01-03T03:09:02.690Z,6.29
2023-01-03T03:11:49.171Z,6.54
2023-01-03T03:14:33.623Z,6.53
2023-01-03T03:17:04.424Z,7.01
2023-01-03T03:19:55.267Z,7.26
2023-01-03T03:23:08.405Z,7.07
2023-01-03T03:25:43.496Z,7.27
2023-01-03T03:28:31.449Z,6.94
2023-01-03T03:31:11.140Z,6.88
2023-01-03T03:33:44.441Z,6.66
2023-01-03T03:36:26.500Z,6.62
2023-01-03T03:38:53.984Z,6.72
2023-01-03T03:41:47.389Z,7.00
2023-01-03T03:44:53.408Z,6.75
2023-01-03T03:47:28.506Z,6.93
2023-01-03T03:49:57.661Z,7.10
2023-01-03T03:52:27.191Z,7.33
2023-01-03T03:54:57.837Z,7.55
2023-01-03T03:57:33.753Z,6.90
2023-01-03T04:00:13.440Z,7.33
2023-01-03T04:02:40.861Z,6.99
2023-01-03T04:05:09.833Z,7.54
2023-01-03T04:07:37.340Z,7.25
2023-01-03T04:10:04.943Z,7.15
2023-01-03T04:12:32.587Z,7.31
2023-01-03T04:14:59.984Z,7.40
2023-01-03T04:17:27.479Z,7.73
2023-01-03T04:19:55.153Z,7.73
2023-01-03T04:22:22.537Z,7.27
2023-01-03T04:24:49.906Z,7.04
2023-01-03T04:27:17.536Z,7.86
2023-01-03T04:29:44.931Z,7.45
2023-01-03T04:32:12.449Z,7.58
2023-01-03T04:34:40.135Z,7.08
2023-01-03T04:37:07.540Z,6.96
2023-01-03T04:39:34.920Z,7.39
2023-01-03T04:42:22.542Z,7.67
2023-01-03T04:44:49.961Z,7.72
2023-01-03T04:47:17.562Z,7.28
2023-01-03T04:49:46.564Z,7.09
2023-01-03T04:52:14.833Z,6.85
2023-01-03T04:54:42.557Z,6.75
2023-01-03T04:57:10.116Z,7.44
2023-01-03T04:59:37.653Z,6.71
2023-01-03T05:02:05.405Z,6.85
2023-01-03T05:04:32.960Z,7.29
2023-01-03T05:07:00.389Z,7.26
2023-01-03T05:09:28.060Z,6.97
2023-01-03T05:11:55.475Z,6.91
2023-01-03T05:14:22.839Z,7.15
2023-01-03T05:16:50.543Z,7.58
2023-01-03T05:19:18.170Z,7.55
2023-01-03T05:22:04.257Z,7.53
2023-01-03T05:24:50.800Z,7.45
2023-01-03T05:27:18.126Z,8.06
2023-01-03T05:29:47.442Z,8.48
2023-01-03T05:32:14.975Z,7.84
2023-01-03T05:34:42.406Z,7.33
2023-01-03T05:37:10.075Z,7.82
2023-01-03T05:39:37.544Z,8.14
2023-01-03T05:42:05.001Z,7.72
2023-01-03T05:44:33.502Z,7.47
2023-01-03T05:47:01.953Z,7.53
2023-01-03T05:49:29.263Z,6.93
2023-01-03T05:51:56.957Z,7.11
2023-01-03T05:54:24.431Z,7.49
2023-01-03T05:56:51.837Z,7.29
2023-01-03T05:59:19.758Z,7.63
2023-01-03T06:01:47.151Z,7.80
2023-01-03T06:04:14.864Z,8.44
2023-01-03T06:06:42.282Z,8.26
2023-01-03T06:09:09.681Z,8.35
2023-01-03T06:11:37.291Z,8.27
2023-01-03T06:14:04.693Z,8.72
2023-01-03T06:16:50.798Z,7.88
2023-01-03T06:19:18.603Z,7.72
2023-01-03T06:21:47.063Z,7.88
2023-01-03T06:24:14.415Z,7.77
2023-01-03T06:26:42.001Z,7.23
2023-01-03T06:29:09.334Z,7.66
2023-01-03T06:31:36.710Z,7.15
2023-01-03T06:34:04.351Z,7.77
2023-01-03T06:36:34.527Z,7.80
2023-01-03T06:39:02.098Z,7.93
2023-01-03T06:41:29.698Z,7.66
2023-01-03T06:43:57.251Z,7.10
2023-01-03T06:46:45.348Z,7.72
2023-01-03T06:49:37.817Z,7.72
2023-01-03T06:52:23.671Z,7.60
2023-01-03T06:54:51.286Z,7.74
2023-01-03T06:57:26.088Z,7.58
2023-01-03T06:59:55.516Z,7.62
2023-01-03T07:02:23.122Z,7.42
2023-01-03T07:04:50.712Z,7.36
2023-01-03T07:07:18.384Z,7.57
2023-01-03T07:09:45.722Z,7.42
2023-01-03T07:12:31.982Z,7.22
2023-01-03T07:14:59.561Z,7.47
2023-01-03T07:17:26.960Z,7.22
2023-01-03T07:19:54.460Z,7.32
2023-01-03T07:22:23.121Z,7.71
2023-01-03T07:24:50.443Z,7.25
2023-01-03T07:27:17.882Z,7.19
2023-01-03T07:29:46.082Z,7.18
2023-01-03T07:32:13.583Z,7.79
2023-01-03T07:34:40.944Z,8.14
2023-01-03T07:37:08.565Z,8.08
2023-01-03T07:39:35.904Z,8.64
2023-01-03T07:42:22.018Z,8.84
2023-01-03T07:44:49.495Z,8.80
2023-01-03T07:47:16.780Z,9.05
2023-01-03T07:49:44.190Z,8.54
2023-01-03T07:52:11.809Z,9.34
2023-01-03T07:54:39.162Z,8.71
2023-01-03T07:57:06.520Z,8.07
2023-01-03T07:59:34.212Z,9.06
2023-01-03T08:02:01.669Z,8.60
2023-01-03T08:04:29.553Z,8.22
2023-01-03T08:06:58.060Z,7.89
2023-01-03T08:09:44.171Z,8.18
2023-01-03T08:12:30.814Z,8.39
2023-01-03T08:14:58.343Z,8.82
2023-01-03T08:17:25.977Z,8.48
2023-01-03T08:19:53.325Z,8.84
2023-01-03T08:22:20.790Z,8.53
2023-01-03T08:24:48.361Z,8.19
2023-01-03T08:27:15.750Z,8.39
2023-01-03T08:29:43.138Z,7.79
2023-01-03T08:32:10.742Z,8.13
2023-01-03T08:34:38.106Z,8.03
2023-01-03T08:37:07.765Z,7.62
2023-01-03T08:39:39.082Z,7.64
2023-01-03T08:42:07.440Z,8.15
2023-01-03T08:44:35.556Z,8.17
2023-01-03T08:47:03.228Z,8.14
2023-01-03T08:49:30.802Z,8.79
2023-01-03T08:51:58.416Z,8.92
2023-01-03T08:54:25.756Z,8.64
2023-01-03T08:56:53.133Z,8.65
2023-01-03T08:59:20.834Z,8.97
2023-01-03T09:01:48.531Z,8.62
2023-01-03T09:04:16.105Z,9.07
2023-01-03T09:06:43.821Z,8.79
2023-01-03T09:09:11.139Z,8.65
2023-01-03T09:11:38.536Z,9.03
2023-01-03T09:14:06.127Z,9.08
2023-01-03T09:16:33.504Z,9.84
2023-01-03T09:19:02.640Z,9.41
2023-01-03T09:21:30.833Z,9.37
2023-01-03T09:24:00.991Z,9.42
2023-01-03T09:26:29.759Z,9.06
2023-01-03T09:28:57.354Z,9.12
2023-01-03T09:31:24.692Z,8.65
2023-01-03T09:33:52.232Z,9.03
2023-01-03T09:36:19.879Z,8.63
2023-01-03T09:38:47.274Z,8.53
2023-01-03T09:41:21.508Z,8.63
2023-01-03T09:43:49.587Z,8.92
2023-01-03T09:46:24.626Z,8.72
2023-01-03T09:48:53.101Z,9.55
2023-01-03T09:51:50.306Z,9.76
2023-01-03T09:54:52.351Z,9.32
2023-01-03T09:57:52.083Z,9.38
2023-01-03T10:01:04.939Z,8.87
2023-01-03T10:03:52.367Z,8.39
2023-01-03T10:06:35.773Z,8.64
2023-01-03T10:09:23.212Z,8.53
2023-01-03T10:12:12.255Z,9.17
2023-01-03T10:14:44.826Z,8.98
2023-01-03T10:17:34.817Z,9.16
2023-01-03T10:20:33.830Z,8.98
2023-01-03T10:23:01.211Z,8.11
2023-01-03T10:25:28.929Z,9.29
2023-01-03T10:28:07.055Z,8.80
2023-01-03T10:31:00.966Z,8.65
2023-01-03T10:33:42.220Z,8.63
2023-01-03T10:36:09.886Z,8.84
2023-01-03T10:38:44.874Z,8.74
2023-01-03T10:41:23.057Z,8.79
2023-01-03T10:44:00.659Z,8.64
2023-01-03T10:46:29.865Z,9.25
2023-01-03T10:49:29.143Z,9.17
2023-01-03T10:52:03.389Z,8.44
2023-01-03T10:54:51.755Z,8.77
2023-01-03T10:57:46.081Z,8.73
2023-01-03T11:00:33.697Z,9.51
2023-01-03T11:03:24.358Z,8.93
2023-01-03T11:05:57.826Z,8.93
2023-01-03T11:08:42.310Z,9.25
2023-01-03T11:11:27.165Z,9.10
2023-01-03T11:14:17.047Z,9.13
2023-01-03T11:16:44.428Z,9.17
2023-01-03T11:19:16.397Z,9.24
2023-01-03T11:22:04.821Z,8.90
2023-01-03T11:24:47.657Z,9.15
2023-01-03T11:27:55.781Z,9.24
2023-01-03T11:30:44.750Z,8.93
2023-01-03T11:33:25.570Z,8.91
2023-01-03T11:36:08.596Z,8.83
2023-01-03T11:38:48.449Z,8.94
2023-01-03T11:41:19.269Z,9.23
2023-01-03T11:44:24.218Z,8.85
2023-01-03T11:47:10.125Z,8.69
2023-01-03T11:50:05.159Z,8.58
2023-01-03T11:52:54.485Z,8.95
2023-01-03T11:55:36.833Z,8.79
2023-01-03T11:58:35.834Z,8.42
2023-01-03T12:01:27.839Z,8.90
2023-01-03T12:03:55.365Z,9.40
2023-01-03T12:06:29.011Z,9.19
2023-01-03T12:08:59.628Z,9.63
2023-01-03T12:11:29.527Z,9.48
2023-01-03T12:14:19.945Z,9.00
2023-01-03T12:16:50.067Z,9.80
2023-01-03T12:19:39.737Z,9.59
2023-01-03T12:22:36.571Z,9.16
2023-01-03T12:25:19.396Z,9.37
2023-01-03T12:28:08.110Z,9.54
2023-01-03T12:30:53.124Z,9.41
2023-01-03T12:33:48.508Z,9.18
2023-01-03T12:36:40.455Z,8.99
2023-01-03T12:39:32.756Z,8.99
2023-01-03T12:42:08.422Z,9.21
2023-01-03T12:44:40.856Z,9.33
2023-01-03T12:47:27.336Z,9.57
2023-01-03T12:50:18.206Z,9.03
2023-01-03T12:52:56.580Z,8.98
2023-01-03T12:55:29.845Z,9.89
2023-01-03T12:58:13.558Z,9.91
2023-01-03T13:01:00.516Z,9.38
2023-01-03T13:03:37.823Z,9.54
2023-01-03T13:06:10.956Z,9.30
2023-01-03T13:08:51.502Z,8.87
2023-01-03T13:11:29.421Z,9.26
2023-01-03T13:14:24.130Z,9.09
2023-01-03T13:16:56.560Z,8.83
2023-01-03T13:19:24.129Z,9.21
2023-01-03T13:21:54.269Z,9.20
2023-01-03T13:24:42.983Z,9.44
2023-01-03T13:27:22.809Z,9.68
2023-01-03T13:29:50.290Z,9.55
2023-01-03T13:32:23.527Z,9.33
2023-01-03T13:34:56.860Z,9.33
2023-01-03T13:37:36.493Z,8.81
2023-01-03T13:40:17.315Z,8.83
2023-01-03T13:42:44.937Z,8.53
2023-01-03T13:45:15.279Z,8.94
2023-01-03T13:47:52.892Z,8.86
2023-01-03T13:50:28.505Z,8.87
2023-01-03T13:53:06.675Z,9.58
2023-01-03T13:55:56.648Z,8.75
2023-01-03T13:58:32.834Z,8.77
2023-01-03T14:01:06.193Z,8.69
2023-01-03T14:03:56.860Z,8.66
2023-01-03T14:06:43.062Z,8.36
2023-01-03T14:09:16.542Z,9.13
2023-01-03T14:12:17.728Z,8.79
2023-01-03T14:14:45.417Z,8.62
2023-01-03T14:17:15.735Z,8.37
2023-01-03T14:19:44.604Z,9.32
2023-01-03T14:22:28.907Z,9.12
2023-01-03T14:24:59.138Z,9.92
2023-01-03T14:27:36.892Z,8.78
2023-01-03T14:30:05.077Z,9.24
2023-01-03T14:32:35.269Z,9.00
2023-01-03T14:35:03.409Z,9.77
2023-01-03T14:37:33.197Z,9.45
2023-01-03T14:40:02.701Z,8.92
2023-01-03T14:42:30.097Z,8.69
2023-01-03T14:45:01.654Z,8.75
2023-01-03T14:47:40.250Z,8.57
2023-01-03T14:50:28.554Z,8.34
2023-01-03T14:52:57.823Z,8.83
2023-01-03T14:55:27.756Z,8.78
2023-01-03T14:57:55.217Z,8.87
2023-01-03T15:00:32.646Z,8.56
2023-01-03T15:03:01.395Z,8.74
2023-01-03T15:05:35.355Z,8.62
2023-01-03T15:08:15.121Z,8.35
2023-01-03T15:10:54.635Z,8.48
2023-01-03T15:13:24.625Z,8.76
2023-01-03T15:15:54.324Z,8.67
2023-01-03T15:18:23.191Z,8.26
2023-01-03T15:20:51.691Z,9.01
2023-01-03T15:23:34.771Z,8.62
2023-01-03T15:26:02.282Z,8.31
2023-01-03T15:28:31.817Z,9.07
2023-01-03T15:31:14.842Z,8.98
2023-01-03T15:33:45.132Z,8.76
2023-01-03T15:36:18.389Z,8.62
2023-01-03T15:38:46.370Z,8.48
2023-01-03T15:42:06.439Z,8.87
2023-01-03T15:44:39.318Z,8.83
2023-01-03T15:47:07.628Z,8.56
2023-01-03T15:50:01.124Z,8.50
2023-01-03T15:52:28.820Z,8.58
2023-01-03T15:54:56.279Z,8.88
2023-01-03T15:57:23.662Z,9.07
2023-01-03T15:59:56.505Z,8.60
2023-01-03T16:02:27.021Z,9.43
2023-01-03T16:04:54.764Z,8.66
2023-01-03T16:07:22.263Z,8.33
2023-01-03T16:09:49.674Z,8.66
2023-01-03T16:12:29.730Z,9.10
2023-01-03T16:14:57.125Z,9.27
2023-01-03T16:17:26.242Z,8.62
2023-01-03T16:19:53.817Z,8.70
2023-01-03T16:22:37.637Z,8.70
2023-01-03T16:25:07.104Z,8.95
2023-01-03T16:27:34.574Z,9.08
2023-01-03T16:30:01.945Z,8.74
2023-01-03T16:32:29.888Z,9.06
2023-01-03T16:35:02.063Z,9.56
2023-01-03T16:37:30.831Z,9.15
2023-01-03T16:39:58.697Z,9.99
2023-01-03T16:42:29.220Z,9.18
2023-01-03T16:44:57.820Z,9.83
2023-01-03T16:47:32.685Z,9.49
2023-01-03T16:50:02.551Z,9.32
2023-01-03T16:52:37.534Z,9.84
2023-01-03T16:55:28.348Z,9.29
2023-01-03T16:57:55.901Z,9.10
2023-01-03T17:00:25.014Z,9.34
2023-01-03T17:02:54.504Z,9.16
2023-01-03T17:05:22.251Z,9.89
2023-01-03T17:07:51.301Z,9.97
2023-01-03T17:10:27.842Z,9.10
2023-01-03T17:12:55.738Z,9.38
2023-01-03T17:15:23.098Z,9.93
2023-01-03T17:17:50.471Z,9.71
2023-01-03T17:20:19.245Z,9.41
2023-01-03T17:22:58.017Z,9.16
2023-01-03T17:25:25.761Z,9.21
2023-01-03T17:27:55.163Z,9.70
2023-01-03T17:30:24.279Z,9.43
2023-01-03T17:32:52.092Z,8.77
2023-01-03T17:35:19.533Z,9.11
2023-01-03T17:38:23.270Z,9.27
2023-01-03T17:40:34.750Z,8.83
2023-01-03T17:43:02.486Z,8.76
2023-01-03T17:45:48.957Z,8.99
2023-01-03T17:48:35.493Z,8.67
2023-01-03T17:51:02.893Z,8.93
2023-01-03T17:53:30.622Z,8.45
2023-01-03T17:55:58.067Z,8.28
2023-01-03T17:58:31.061Z,8.46
2023-01-03T18:00:59.040Z,8.73
2023-01-03T18:03:26.845Z,9.06
2023-01-03T18:05:54.263Z,9.03
2023-01-03T18:08:21.893Z,8.55
2023-01-03T18:10:49.574Z,8.59
2023-01-03T18:13:21.177Z,8.69
2023-01-03T18:15:48.783Z,8.44
2023-01-03T18:18:19.959Z,8.40
2023-01-03T18:20:47.449Z,8.49
2023-01-03T18:23:33.602Z,8.51
2023-01-03T18:26:05.546Z,8.53
2023-01-03T18:28:32.827Z,8.59
2023-01-03T18:31:00.270Z,8.79
2023-01-03T18:33:28.284Z,8.76
2023-01-03T18:35:55.610Z,8.41
2023-01-03T18:38:43.322Z,8.31
2023-01-03T18:41:17.075Z,8.10
2023-01-03T18:43:44.510Z,8.12
2023-01-03T18:46:15.879Z,8.22
2023-01-03T18:48:43.306Z,8.05
2023-01-03T18:51:15.011Z,8.25
2023-01-03T18:53:43.461Z,8.23
2023-01-03T18:56:37.521Z,8.59
2023-01-03T18:59:13.672Z,8.89
2023-01-03T19:01:41.158Z,8.39
2023-01-03T19:04:08.939Z,8.48
2023-01-03T19:06:36.597Z,8.11
2023-01-03T19:09:04.501Z,8.22
2023-01-03T19:11:36.920Z,8.46
2023-01-03T19:14:04.349Z,8.25
2023-01-03T19:16:33.471Z,8.05
2023-01-03T19:19:01.094Z,8.04
2023-01-03T19:21:36.109Z,8.03
2023-01-03T19:24:11.898Z,8.48
2023-01-03T19:26:44.600Z,8.64
2023-01-03T19:29:20.455Z,8.50
2023-01-03T19:31:48.620Z,8.14
2023-01-03T19:34:18.462Z,8.34
2023-01-03T19:36:46.125Z,8.55
2023-01-03T19:39:13.667Z,8.78
2023-01-03T19:42:04.206Z,9.14
2023-01-03T19:44:32.208Z,8.50
2023-01-03T19:47:00.041Z,8.32
2023-01-03T19:49:27.536Z,8.32
2023-01-03T19:51:56.880Z,8.68
2023-01-03T19:54:24.638Z,8.18
2023-01-03T19:56:55.278Z,7.90
2023-01-03T19:59:30.551Z,8.24
2023-01-03T20:02:23.984Z,8.53
2023-01-03T20:04:45.913Z,8.40
2023-01-03T20:07:16.587Z,8.41
2023-01-03T20:09:43.916Z,8.95
2023-01-03T20:12:15.538Z,9.30
2023-01-03T20:14:45.662Z,9.04
2023-01-03T20:17:23.747Z,9.55
2023-01-03T20:19:51.223Z,9.05
2023-01-03T20:22:52.876Z,8.58
2023-01-03T20:25:22.563Z,8.67
2023-01-03T20:27:50.593Z,9.05
2023-01-03T20:30:18.969Z,9.14
2023-01-03T20:32:46.392Z,8.82
2023-01-03T20:35:56.335Z,8.90
2023-01-03T20:38:02.995Z,8.89
2023-01-03T20:40:30.602Z,8.74
2023-01-03T20:43:01.976Z,8.90
2023-01-03T20:45:29.489Z,9.00
2023-01-03T20:47:57.116Z,8.34
2023-01-03T20:50:26.503Z,8.47
2023-01-03T20:52:54.355Z,8.52
2023-01-03T20:55:23.206Z,8.40
2023-01-03T20:57:50.806Z,8.76
2023-01-03T21:00:26.869Z,8.25
2023-01-03T21:02:54.764Z,8.30
2023-01-03T21:05:22.352Z,8.37
2023-01-03T21:08:08.627Z,8.08
2023-01-03T21:10:40.362Z,8.17
2023-01-03T21:13:07.975Z,8.50
2023-01-03T21:15:35.809Z,9.41
2023-01-03T21:18:03.915Z,8.90
2023-01-03T21:20:31.564Z,8.67
2023-01-03T21:22:59.198Z,9.16
2023-01-03T21:25:32.860Z,9.30
2023-01-03T21:28:01.000Z,8.85
2023-01-03T21:30:30.783Z,9.45
2023-01-03T21:32:59.597Z,8.68
2023-01-03T21:35:27.633Z,8.89
2023-01-03T21:37:55.078Z,8.29
2023-01-03T21:40:26.912Z,8.36
2023-01-03T21:43:05.441Z,8.16
2023-01-03T21:45:44.147Z,8.51
2023-01-03T21:48:13.143Z,8.69
2023-01-03T21:50:42.483Z,8.25
2023-01-03T21:53:14.478Z,8.62
2023-01-03T21:55:42.200Z,8.20
2023-01-03T21:58:15.771Z,8.64
2023-01-03T22:00:43.551Z,8.17
2023-01-03T22:03:31.031Z,8.80
2023-01-03T22:06:12.299Z,8.00
2023-01-03T22:08:40.630Z,8.50
2023-01-03T22:11:08.284Z,8.04
2023-01-03T22:13:35.895Z,7.77
2023-01-03T22:16:05.106Z,7.89
2023-01-03T22:18:32.793Z,7.69
2023-01-03T22:21:07.837Z,7.53
2023-01-03T22:23:36.135Z,7.54
2023-01-03T22:26:13.851Z,7.76
2023-01-03T22:28:43.021Z,7.96
2023-01-03T22:31:12.734Z,7.50
2023-01-03T22:33:40.157Z,7.55
2023-01-03T22:36:08.502Z,7.90
2023-01-03T22:38:36.558Z,7.89
2023-01-03T22:41:10.452Z,7.79
2023-01-03T22:43:38.123Z,7.83
2023-01-03T22:46:09.005Z,7.96
2023-01-03T22:48:36.576Z,7.99
2023-01-03T22:51:09.306Z,8.03
2023-01-03T22:53:37.504Z,7.81
2023-01-03T22:56:06.199Z,7.69
2023-01-03T22:58:34.641Z,7.27
2023-01-03T23:01:09.436Z,7.94
2023-01-03T23:03:37.147Z,8.22
2023-01-03T23:06:13.543Z,7.60
2023-01-03T23:08:42.199Z,7.73
2023-01-03T23:11:34.280Z,7.74
2023-01-03T23:14:04.129Z,7.58
2023-01-03T23:16:32.354Z,7.49
2023-01-03T23:19:03.799Z,7.63
2023-01-03T23:21:31.504Z,7.77
2023-01-03T23:23:58.864Z,7.27
2023-01-03T23:26:26.209Z,7.27
2023-01-03T23:28:57.473Z,7.55
2023-01-03T23:31:26.402Z,7.55
2023-01-03T23:33:55.221Z,7.43
2023-01-03T23:36:22.672Z,7.80
2023-01-03T23:38:50.049Z,8.30
2023-01-03T23:41:17.912Z,7.29
2023-01-03T23:43:45.309Z,7.51
2023-01-03T23:46:17.639Z,7.34
2023-01-03T23:48:45.466Z,7.74
2023-01-03T23:51:12.891Z,7.19
2023-01-03T23:53:41.814Z,7.38
2023-01-03T23:56:16.268Z,7.34
2023-01-03T23:58:43.707Z,8.12
